createdAt,value
2017-06-23T03:30:45.419Z,51.30
2017-06-23T03:33:13.077Z,51.00
2017-06-23T03:35:40.741Z,50.70
2017-06-23T03:38:08.386Z,50.80
2017-06-23T03:40:36.033Z,50.40
2017-06-23T03:43:03.672Z,50.30
2017-06-23T03:45:32.107Z,50.60
2017-06-23T03:47:59.740Z,50.50
2017-06-23T03:50:27.797Z,51.40
2017-06-23T03:52:55.438Z,51.80
2017-06-23T03:55:23.096Z,52.00
2017-06-23T03:57:50.760Z,52.20
2017-06-23T04:00:18.439Z,51.80
2017-06-23T04:02:46.856Z,51.10
2017-06-23T04:05:14.514Z,51.10
2017-06-23T04:07:42.174Z,51.00
2017-06-23T04:10:09.950Z,50.80
2017-06-23T04:12:37.941Z,50.90
2017-06-23T04:15:05.698Z,51.20
2017-06-23T04:17:33.319Z,51.30
2017-06-23T04:20:00.985Z,51.40
2017-06-23T04:22:28.639Z,51.60
2017-06-23T04:24:56.350Z,52.70
2017-06-23T04:27:23.994Z,53.30
2017-06-23T04:29:52.984Z,53.40
2017-06-23T04:32:20.626Z,53.10
2017-06-23T04:34:48.281Z,53.30
2017-06-23T04:37:15.927Z,53.40
2017-06-23T04:39:43.991Z,53.40
2017-06-23T04:42:12.445Z,52.10
2017-06-23T04:44:40.077Z,52.30
2017-06-23T04:47:07.736Z,52.40
2017-06-23T04:49:35.407Z,52.90
2017-06-23T04:52:03.068Z,53.60
2017-06-23T04:54:30.721Z,54.10
2017-06-23T04:56:58.757Z,54.50
2017-06-23T04:59:27.171Z,53.80
2017-06-23T05:01:54.879Z,53.70
2017-06-23T05:04:22.540Z,54.40
2017-06-23T05:06:50.194Z,54.80
2017-06-23T05:09:17.859Z,54.90
2017-06-23T05:11:45.542Z,55.30
2017-06-23T05:14:13.969Z,55.40
2017-06-23T05:16:41.604Z,55.40
2017-06-23T05:19:09.653Z,55.50
2017-06-23T05:21:38.044Z,54.70
2017-06-23T05:24:05.696Z,54.80
2017-06-23T05:26:34.139Z,54.90
2017-06-23T05:29:01.773Z,54.90
2017-06-23T05:31:29.442Z,54.90
2017-06-23T05:33:57.094Z,54.50
2017-06-23T05:36:25.139Z,53.70
2017-06-23T05:38:52.793Z,52.60
2017-06-23T05:41:21.426Z,51.80
2017-06-23T05:43:49.458Z,51.70
2017-06-23T05:46:17.867Z,51.40
2017-06-23T05:48:45.547Z,51.30
2017-06-23T05:51:13.544Z,51.10
2017-06-23T05:53:41.254Z,50.70
2017-06-23T05:56:08.902Z,50.90
2017-06-23T05:58:37.091Z,50.60
2017-06-23T06:01:04.804Z,50.40
2017-06-23T06:03:32.452Z,50.40
2017-06-23T06:06:00.463Z,50.90
2017-06-23T06:08:28.877Z,51.50
2017-06-23T06:10:56.537Z,51.50
2017-06-23T06:13:24.499Z,50.10
2017-06-23T06:15:52.164Z,50.10
2017-06-23T06:18:19.817Z,50.40
2017-06-23T06:20:47.860Z,50.50
2017-06-23T06:23:15.503Z,51.50
2017-06-23T06:25:43.150Z,51.70
2017-06-23T06:28:11.177Z,51.80
2017-06-23T06:30:38.856Z,52.30
2017-06-23T06:33:06.511Z,51.70
2017-06-23T06:35:34.483Z,50.50
2017-06-23T06:38:02.144Z,52.00
2017-06-23T06:40:30.074Z,50.80
2017-06-23T06:42:58.880Z,49.70
2017-06-23T06:45:26.529Z,49.60
2017-06-23T06:47:54.933Z,49.60
2017-06-23T06:50:22.993Z,49.50
2017-06-23T06:52:50.677Z,49.80
2017-06-23T06:55:18.340Z,50.00
2017-06-23T06:57:46.292Z,48.70
2017-06-23T07:00:13.975Z,48.70
2017-06-23T07:02:41.625Z,48.70
2017-06-23T07:05:09.695Z,48.10
2017-06-23T07:07:37.339Z,47.10
2017-06-23T07:10:05.071Z,48.00
2017-06-23T07:12:33.065Z,48.50
2017-06-23T07:15:01.503Z,48.70
2017-06-23T07:17:29.145Z,48.70
2017-06-23T07:19:57.152Z,49.20
2017-06-23T07:22:24.807Z,48.80
2017-06-23T07:24:52.514Z,47.90
2017-06-23T07:27:20.575Z,47.40
2017-06-23T07:29:48.247Z,46.40
2017-06-23T07:32:15.908Z,46.90
2017-06-23T07:34:44.118Z,48.70
2017-06-23T07:37:11.770Z,48.30
2017-06-23T07:39:39.434Z,48.50
2017-06-23T07:42:07.474Z,48.80
2017-06-23T07:44:35.896Z,47.60
2017-06-23T07:47:03.610Z,47.50
2017-06-23T07:49:31.281Z,47.40
2017-06-23T07:51:58.942Z,49.20
2017-06-23T07:54:26.624Z,49.70
2017-06-23T07:56:54.255Z,49.40
2017-06-23T07:59:22.706Z,48.10
2017-06-23T08:01:50.382Z,48.10
2017-06-23T08:04:18.047Z,48.10
2017-06-23T08:06:46.505Z,46.70
2017-06-23T08:09:14.150Z,46.10
2017-06-23T08:11:41.822Z,45.00
2017-06-23T08:14:09.463Z,44.10
2017-06-23T08:16:37.133Z,44.70
2017-06-23T08:19:04.788Z,45.00
2017-06-23T08:21:32.804Z,45.40
2017-06-23T08:24:00.459Z,43.10
2017-06-23T08:26:28.136Z,43.10
2017-06-23T08:28:56.555Z,43.80
2017-06-23T08:31:24.203Z,43.80
2017-06-23T08:33:51.867Z,43.80
2017-06-23T08:36:19.556Z,44.10
2017-06-23T08:38:47.243Z,43.90
2017-06-23T08:41:14.938Z,43.10
2017-06-23T08:43:43.744Z,39.80
2017-06-23T08:46:11.406Z,39.80
2017-06-23T08:48:39.081Z,39.50
2017-06-23T08:51:07.137Z,38.30
2017-06-23T08:53:34.788Z,41.40
2017-06-23T08:56:02.434Z,41.40
2017-06-23T08:58:31.188Z,40.90
2017-06-23T09:00:58.842Z,40.90
2017-06-23T09:03:26.484Z,40.00
2017-06-23T09:05:54.518Z,39.40
2017-06-23T09:08:22.926Z,39.10
2017-06-23T09:10:50.559Z,38.60
2017-06-23T09:13:19.364Z,37.20
2017-06-23T09:15:47.021Z,37.10
2017-06-23T09:18:15.420Z,36.40
2017-06-23T09:20:43.478Z,36.30
2017-06-23T09:23:11.141Z,35.50
2017-06-23T09:25:38.759Z,34.90
2017-06-23T09:28:06.736Z,35.60
2017-06-23T09:30:34.462Z,35.60
2017-06-23T09:33:02.106Z,36.40
2017-06-23T09:35:30.152Z,35.90
2017-06-23T09:37:58.609Z,35.10
2017-06-23T09:40:26.268Z,35.00
2017-06-23T09:42:53.918Z,33.80
2017-06-23T09:45:21.561Z,33.50
2017-06-23T09:47:49.204Z,34.70
2017-06-23T09:50:16.837Z,34.30
2017-06-23T09:52:45.265Z,31.40
2017-06-23T09:55:12.918Z,30.80
2017-06-23T09:57:40.596Z,31.20
2017-06-23T10:00:08.223Z,32.60
2017-06-23T10:02:36.270Z,33.10
2017-06-23T10:05:04.676Z,36.20
2017-06-23T10:07:32.345Z,35.50
2017-06-23T10:10:00.027Z,35.80
2017-06-23T10:12:27.694Z,34.90
2017-06-23T10:14:55.387Z,36.30
2017-06-23T10:17:23.045Z,36.60
2017-06-23T10:19:51.872Z,34.80
2017-06-23T10:22:19.508Z,33.50
2017-06-23T10:24:47.141Z,32.80
2017-06-23T10:27:14.801Z,32.10
2017-06-23T10:29:42.451Z,29.60
2017-06-23T10:32:10.421Z,30.30
2017-06-23T10:34:38.082Z,30.80
2017-06-23T10:37:05.695Z,29.80
2017-06-23T10:39:34.422Z,29.50
2017-06-23T10:42:02.077Z,29.50
2017-06-23T10:44:29.712Z,30.40
2017-06-23T10:46:58.497Z,30.10
2017-06-23T10:49:26.134Z,30.10
2017-06-23T10:51:53.764Z,30.60
2017-06-23T10:54:21.715Z,31.40
2017-06-23T10:56:49.357Z,31.30
2017-06-23T10:59:17.017Z,32.00
2017-06-23T11:01:45.101Z,32.80
2017-06-23T11:04:12.745Z,32.20
2017-06-23T11:06:41.166Z,32.30
2017-06-23T11:09:09.167Z,32.30
2017-06-23T11:11:36.848Z,31.70
2017-06-23T11:14:05.245Z,32.30
2017-06-23T11:16:33.304Z,32.30
2017-06-23T11:19:01.738Z,32.40
2017-06-23T11:21:29.376Z,32.40
2017-06-23T11:23:57.336Z,32.70
2017-06-23T11:26:24.966Z,32.60
2017-06-23T11:28:52.675Z,33.00
2017-06-23T11:31:20.633Z,31.20
2017-06-23T11:33:48.293Z,31.00
2017-06-23T11:36:15.966Z,30.30
2017-06-23T11:38:43.632Z,30.50
2017-06-23T11:41:11.295Z,30.30
2017-06-23T11:43:38.961Z,30.00
2017-06-23T11:46:06.627Z,30.00
2017-06-23T11:48:34.307Z,29.70
2017-06-23T11:51:01.950Z,30.00
2017-06-23T11:53:29.619Z,30.10
2017-06-23T11:55:57.251Z,30.60
2017-06-23T11:58:25.303Z,30.40
2017-06-23T12:00:53.715Z,29.10
2017-06-23T12:03:21.376Z,29.10
2017-06-23T12:05:49.526Z,29.30
2017-06-23T12:08:17.167Z,29.90
2017-06-23T12:10:45.572Z,29.30
2017-06-23T12:13:13.634Z,29.30
2017-06-23T12:15:41.281Z,28.80
2017-06-23T12:18:08.936Z,29.30
2017-06-23T12:20:37.681Z,29.00
2017-06-23T12:23:05.329Z,28.70
2017-06-23T12:25:32.946Z,28.20
2017-06-23T12:28:01.389Z,28.90
2017-06-23T12:30:29.040Z,28.90
2017-06-23T12:32:57.072Z,28.40
2017-06-23T12:35:25.506Z,25.90
2017-06-23T12:37:53.157Z,25.80
2017-06-23T12:40:21.129Z,24.50
2017-06-23T12:42:48.768Z,26.20
2017-06-23T12:45:16.533Z,26.10
2017-06-23T12:47:44.501Z,25.40
2017-06-23T12:50:12.138Z,25.20
2017-06-23T12:52:40.574Z,24.20
2017-06-23T12:55:08.592Z,24.20
2017-06-23T12:57:36.998Z,25.10
2017-06-23T13:00:05.165Z,25.10
2017-06-23T13:02:33.126Z,25.00
2017-06-23T13:05:00.762Z,25.50
2017-06-23T13:07:29.151Z,25.10
2017-06-23T13:09:57.228Z,24.80
2017-06-23T13:12:25.760Z,25.10
2017-06-23T13:14:53.397Z,24.60
2017-06-23T13:17:21.406Z,23.40
2017-06-23T13:19:49.087Z,23.80
2017-06-23T13:22:17.502Z,24.10
2017-06-23T13:24:45.507Z,24.00
2017-06-23T13:27:14.092Z,22.90
2017-06-23T13:29:41.843Z,22.80
2017-06-23T13:32:09.859Z,23.30
2017-06-23T13:34:38.448Z,23.30
2017-06-23T13:37:06.106Z,23.30
2017-06-23T13:39:35.162Z,23.10
2017-06-23T13:42:02.805Z,23.00
2017-06-23T13:44:30.477Z,23.00
2017-06-23T13:46:58.474Z,22.30
2017-06-23T13:49:26.221Z,23.50
2017-06-23T13:51:53.896Z,23.90
2017-06-23T13:54:21.926Z,23.90
2017-06-23T13:56:49.573Z,24.40
2017-06-23T13:59:17.347Z,24.30
2017-06-23T14:01:46.443Z,23.90
2017-06-23T14:04:14.551Z,24.40
2017-06-23T14:06:42.393Z,23.50
2017-06-23T14:09:10.634Z,23.50
2017-06-23T14:11:39.056Z,22.50
2017-06-23T14:14:06.756Z,22.50
2017-06-23T14:16:34.771Z,21.00
2017-06-23T14:19:02.436Z,20.00
2017-06-23T14:21:30.203Z,21.10
2017-06-23T14:23:58.115Z,21.30
2017-06-23T14:26:25.875Z,20.70
2017-06-23T14:28:53.540Z,21.70
2017-06-23T14:31:21.204Z,21.70
2017-06-23T14:33:48.885Z,22.30
2017-06-23T14:36:16.519Z,21.80
2017-06-23T14:38:44.633Z,22.70
2017-06-23T14:41:13.039Z,23.80
2017-06-23T14:43:40.675Z,23.80
2017-06-23T14:46:08.318Z,22.60
2017-06-23T14:48:36.000Z,23.40
2017-06-23T14:51:04.061Z,23.50
2017-06-23T14:53:31.712Z,24.10
2017-06-23T14:55:59.391Z,22.80
2017-06-23T14:58:28.149Z,25.00
2017-06-23T15:00:55.811Z,25.00
2017-06-23T15:03:23.468Z,25.40
2017-06-23T15:05:51.477Z,25.40
2017-06-23T15:08:19.112Z,25.20
2017-06-23T15:10:46.771Z,24.70
2017-06-23T15:13:14.748Z,23.90
2017-06-23T15:15:42.409Z,23.10
2017-06-23T15:18:10.210Z,24.00
2017-06-23T15:20:38.230Z,25.00
2017-06-23T15:23:05.898Z,25.80
2017-06-23T15:25:34.356Z,24.70
2017-06-23T15:28:03.071Z,24.60
2017-06-23T15:30:30.725Z,24.70
2017-06-23T15:32:58.371Z,25.80
2017-06-23T15:35:26.384Z,26.60
2017-06-23T15:37:54.830Z,24.60
2017-06-23T15:40:22.478Z,24.50
2017-06-23T15:42:50.492Z,24.10
2017-06-23T15:45:18.981Z,24.60
2017-06-23T15:47:46.637Z,24.60
2017-06-23T15:50:16.294Z,24.20
2017-06-23T15:52:43.945Z,24.20
2017-06-23T15:55:11.592Z,24.40
2017-06-23T15:57:40.488Z,25.00
2017-06-23T16:00:08.140Z,24.40
2017-06-23T16:02:35.800Z,24.20
2017-06-23T16:05:03.472Z,24.30
2017-06-23T16:07:31.561Z,25.10
2017-06-23T16:09:59.318Z,25.90
2017-06-23T16:12:27.519Z,25.80
2017-06-23T16:14:55.627Z,25.70
2017-06-23T16:17:24.109Z,25.80
2017-06-23T16:19:53.483Z,25.80
2017-06-23T16:22:21.561Z,26.50
2017-06-23T16:24:49.167Z,26.00
2017-06-23T16:27:16.815Z,26.20
2017-06-23T16:29:44.478Z,26.40
2017-06-23T16:32:12.114Z,26.80
2017-06-23T16:34:39.776Z,27.40
2017-06-23T16:37:07.434Z,26.80
2017-06-23T16:39:35.102Z,26.40
2017-06-23T16:42:03.523Z,26.20
2017-06-23T16:44:31.567Z,26.20
2017-06-23T16:46:59.215Z,26.20
2017-06-23T16:49:27.631Z,26.10
2017-06-23T16:51:55.319Z,25.60
2017-06-23T16:54:22.966Z,26.20
2017-06-23T16:56:50.643Z,26.20
2017-06-23T16:59:18.500Z,26.40
2017-06-23T17:01:46.494Z,26.60
2017-06-23T17:04:14.153Z,26.90
2017-06-23T17:06:41.816Z,26.80
2017-06-23T17:09:09.824Z,26.40
2017-06-23T17:11:37.442Z,26.90
2017-06-23T17:14:05.169Z,27.20
2017-06-23T17:16:33.247Z,27.40
2017-06-23T17:19:00.974Z,27.50
2017-06-23T17:21:29.388Z,27.50
2017-06-23T17:23:57.434Z,27.50
2017-06-23T17:26:25.103Z,27.50
2017-06-23T17:28:52.740Z,27.60
2017-06-23T17:31:20.739Z,28.00
2017-06-23T17:33:48.377Z,28.40
2017-06-23T17:36:16.776Z,29.60
2017-06-23T17:38:44.774Z,29.20
2017-06-23T17:41:12.429Z,29.00
2017-06-23T17:43:40.073Z,28.70
2017-06-23T17:46:08.166Z,29.00
2017-06-23T17:48:36.228Z,28.50
2017-06-23T17:51:03.920Z,28.00
2017-06-23T17:53:32.222Z,27.70
2017-06-23T17:55:59.859Z,28.50
2017-06-23T17:58:27.705Z,28.70
2017-06-23T18:00:55.453Z,28.90
2017-06-23T18:03:23.155Z,29.00
2017-06-23T18:05:51.027Z,28.90
2017-06-23T18:08:18.784Z,29.20
2017-06-23T18:10:46.478Z,29.60
2017-06-23T18:13:14.111Z,30.40
2017-06-23T18:15:43.110Z,30.00
2017-06-23T18:18:10.747Z,29.90
2017-06-23T18:20:38.399Z,29.90
2017-06-23T18:23:06.075Z,29.80
2017-06-23T18:25:33.713Z,30.20
2017-06-23T18:28:01.495Z,30.00
2017-06-23T18:30:29.160Z,29.90
2017-06-23T18:32:57.060Z,29.80
2017-06-23T18:35:24.722Z,29.90
2017-06-23T18:37:52.845Z,29.80
2017-06-23T18:40:20.746Z,29.80
2017-06-23T18:42:48.570Z,30.00
2017-06-23T18:45:16.232Z,30.00
2017-06-23T18:47:43.892Z,30.30
2017-06-23T18:50:11.584Z,30.20
2017-06-23T18:52:39.260Z,30.10
2017-06-23T18:55:06.937Z,30.30
2017-06-23T18:57:34.920Z,30.30
2017-06-23T19:00:03.716Z,30.40
2017-06-23T19:02:31.529Z,30.40
2017-06-23T19:04:59.831Z,30.50
2017-06-23T19:07:27.473Z,30.60
2017-06-23T19:09:55.115Z,30.80
2017-06-23T19:12:22.783Z,31.00
2017-06-23T19:14:50.448Z,31.10
2017-06-23T19:17:18.105Z,31.10
2017-06-23T19:19:45.761Z,31.00
2017-06-23T19:22:13.715Z,31.20
2017-06-23T19:24:42.143Z,31.50
2017-06-23T19:27:09.768Z,31.50
2017-06-23T19:29:37.869Z,31.90
2017-06-23T19:32:05.523Z,32.20
2017-06-23T19:34:33.180Z,32.30
2017-06-23T19:37:01.216Z,32.30
2017-06-23T19:39:29.621Z,32.80
2017-06-23T19:41:57.386Z,32.80
2017-06-23T19:44:25.449Z,33.40
2017-06-23T19:46:53.118Z,33.60
2017-06-23T19:49:20.843Z,33.80
2017-06-23T19:51:50.337Z,35.00
2017-06-23T19:54:18.000Z,34.40
2017-06-23T19:56:45.663Z,34.60
2017-06-23T19:59:13.662Z,34.90
2017-06-23T20:01:41.313Z,35.20
2017-06-23T20:04:09.738Z,36.20
2017-06-23T20:06:37.766Z,36.20
2017-06-23T20:09:06.184Z,36.40
2017-06-23T20:11:33.836Z,36.40
2017-06-23T20:14:01.522Z,36.00
2017-06-23T20:16:29.163Z,35.90
2017-06-23T20:18:56.856Z,35.80
2017-06-23T20:21:24.514Z,36.00
2017-06-23T20:23:52.203Z,36.00
2017-06-23T20:26:20.075Z,36.20
2017-06-23T20:28:47.741Z,36.10
2017-06-23T20:31:16.157Z,37.00
2017-06-23T20:33:44.211Z,36.20
2017-06-23T20:36:11.866Z,36.30
2017-06-23T20:38:40.266Z,36.00
2017-06-23T20:41:07.945Z,35.90
2017-06-23T20:43:35.582Z,36.00
2017-06-23T20:46:03.265Z,36.10
2017-06-23T20:48:30.935Z,36.00
2017-06-23T20:50:58.607Z,36.10
2017-06-23T20:53:26.305Z,36.00
2017-06-23T20:55:54.743Z,36.00
2017-06-23T20:58:22.404Z,35.80
2017-06-23T21:00:50.470Z,35.90
2017-06-23T21:03:18.128Z,35.70
2017-06-23T21:05:45.763Z,35.80
2017-06-23T21:08:13.423Z,36.10
2017-06-23T21:10:41.135Z,36.60
2017-06-23T21:13:08.813Z,36.90
2017-06-23T21:15:36.452Z,37.10
2017-06-23T21:18:04.593Z,37.10
2017-06-23T21:20:32.278Z,37.50
2017-06-23T21:23:00.130Z,37.50
2017-06-23T21:25:27.795Z,37.40
2017-06-23T21:27:55.452Z,37.60
